Eagle, Idaho
Current Conditions -  °F | °C
As of 6:53 AM on Wednesday 26 Nov 2014 (Local Time) from KBOI Reporting Station
Clear Clear  
Wind Chill: 36°   Ceiling: Unl
Heat Index: 39°   Visibility: 10mi
Dew Point: 35°   Wind: 5mph
Humidity: 86%   Direction: 120°ESE
Pressure: 30.31"   Gusts: NA
Location:  43.7°N, 116.35°W
Report Text: KBOI 261353Z 12004KT 10SM CLR 04/02 A3031 RMK AO2 SLP269 T00390017
Loading
Personal Weather Stations






























Interactive Weather Map New forecast layout! Learn more

10-Day Weather Forecast

Advertisements
Track Severe Weather on mobile